Airfield :
LOGIN :

Register | Disclaimer

   EN    FR    IT 

 










Legend :    VFR   Marginal VFR   IFR   Intensive IFR   Very Intensive IFR
Visi :
Ceiling :
>= 8 km
>= 3000ft
5 to 8 km
1000 to 3000 ft
1500m to 5 km
500 to 1000 ft
800 to 1500m
200 to 500 ft
< 800m
< 200 ft
Symbols :   Thunderstorms  Fog  Heavy snow  Heavy precipitations  Wind > 20 kt
SIGMETs :     Misc.  Thunderstorms  Icing  Turbulence  Mountain Waves  Volcanic Ashes






- Airport Elevation : 1959 ft
- IATA code : HOQ


EDQM - Hof Plauen

CURRENT METAR :
  • 172220Z AUTO 31003KT 270V350 9999 // SCT010/// BKN014/// BKN020/// 01/M00 Q1031

EXPIRED METARs :
  • 172150Z AUTO 00000KT 9999 // FEW013/// OVC030/// 01/M00 Q1031
  • 172120Z AUTO VRB02KT 9999 // SCT009/// BKN016/// BKN020/// 00/M00 Q1031
  • 172050Z AUTO 30004KT 260V340 9999 // FEW015/// SCT017/// BKN020/// 00/00 Q1031
  • 172020Z AUTO 31003KT 270V350 6000 // FEW009/// SCT015/// BKN027/// 00/M00 Q1031
  • 171950Z AUTO 33005KT 300V010 6000 // ///024/// 00/M00 Q1030

TAF TAF EDQM
Valid from the 17 at 18:00 until the 18 at 03:00 UTC


171700Z 1718/1803 26015KT 6000 SCT004 BKN008 OVC015
BECMG 1718/1719 33006KT
TEMPO 1718/1720 3000 -SNDZ OVC004
BECMG 1720/1722 FEW010 BKN020
PROB30
TEMPO 1720/1803 BKN010



MET'MAP, your aeronautical weather chart ! - Copyright ORBIFLY December 2007 - Disclaimer

ORBIFLY MET'MAP TEAM :

Programming & Development : Alexandra Zaïnal
Concept & original design : Baudouin d'Aumeries
Assistance for programming : Marc-Olivier Méhu
Technical & hardware support : Manuel Goepfert

Contact : metmap@orbifly.com




SOURCES & CREDITS :

   NOAA